createdAt,value
2019-03-20T00:02:24.364Z,53.10
2019-03-20T00:04:52.671Z,52.70
2019-03-20T00:07:21.013Z,52.80
2019-03-20T00:09:48.846Z,53.50
2019-03-20T00:12:17.205Z,53.60
2019-03-20T00:14:45.684Z,53.50
2019-03-20T00:17:13.991Z,53.70
2019-03-20T00:19:42.313Z,54.10
2019-03-20T00:22:10.418Z,52.90
2019-03-20T00:24:38.727Z,53.20
2019-03-20T00:27:07.078Z,53.50
2019-03-20T00:29:35.386Z,54.00
2019-03-20T00:32:04.184Z,54.00
2019-03-20T00:34:32.339Z,54.10
2019-03-20T00:37:00.597Z,54.10
2019-03-20T00:39:28.980Z,54.30
2019-03-20T00:41:57.315Z,54.50
2019-03-20T00:44:25.671Z,53.30
2019-03-20T00:46:53.729Z,52.50
2019-03-20T00:49:21.975Z,52.30
2019-03-20T00:51:50.374Z,52.70
2019-03-20T00:54:18.797Z,53.50
2019-03-20T00:56:46.696Z,53.60
2019-03-20T00:59:14.639Z,52.80
2019-03-20T01:01:42.584Z,53.50
2019-03-20T01:04:10.754Z,55.10
2019-03-20T01:06:39.035Z,55.50
2019-03-20T01:09:07.671Z,55.20
2019-03-20T01:11:35.615Z,55.10
2019-03-20T01:14:04.066Z,56.00
2019-03-20T01:16:32.511Z,56.50
2019-03-20T01:19:01.030Z,55.70
2019-03-20T01:21:29.376Z,56.40
2019-03-20T01:23:57.690Z,57.30
2019-03-20T01:26:26.075Z,57.40
2019-03-20T01:28:54.463Z,57.40
2019-03-20T01:31:22.451Z,57.40
2019-03-20T01:33:50.367Z,57.90
2019-03-20T01:36:18.507Z,57.40
2019-03-20T01:38:46.374Z,57.10
2019-03-20T01:41:14.821Z,57.30
2019-03-20T01:43:42.855Z,57.50
2019-03-20T01:46:11.212Z,58.00
2019-03-20T01:48:39.655Z,58.30
2019-03-20T01:51:17.750Z,58.60
2019-03-20T01:53:46.075Z,58.90
2019-03-20T01:56:14.424Z,59.20
2019-03-20T01:58:42.704Z,59.30
2019-03-20T02:01:11.088Z,59.20
2019-03-20T02:03:40.905Z,59.60
2019-03-20T02:06:09.562Z,59.90
2019-03-20T02:08:38.099Z,61.00
2019-03-20T02:11:06.083Z,60.30
2019-03-20T02:13:34.383Z,61.00
2019-03-20T02:16:02.284Z,61.00
2019-03-20T02:18:30.674Z,61.50
2019-03-20T02:20:59.539Z,61.80
2019-03-20T02:23:27.947Z,61.90
2019-03-20T02:25:55.934Z,62.00
2019-03-20T02:28:26.041Z,62.50
2019-03-20T02:30:54.251Z,62.50
2019-03-20T02:33:23.960Z,62.00
2019-03-20T02:35:52.476Z,62.00
2019-03-20T02:38:20.768Z,62.60
2019-03-20T02:40:49.277Z,62.50
2019-03-20T02:43:17.492Z,62.40
2019-03-20T02:45:45.481Z,62.30
2019-03-20T02:48:13.916Z,62.00
2019-03-20T02:50:42.203Z,62.60
2019-03-20T02:53:10.569Z,62.50
2019-03-20T02:55:38.846Z,62.50
2019-03-20T02:58:06.836Z,62.50
2019-03-20T03:00:35.103Z,62.80
2019-03-20T03:03:03.801Z,62.60
2019-03-20T03:05:32.065Z,62.60
2019-03-20T03:07:59.963Z,62.50
2019-03-20T03:10:28.289Z,62.20
2019-03-20T03:12:56.395Z,62.00
2019-03-20T03:15:24.871Z,61.80
2019-03-20T03:17:52.832Z,62.30
2019-03-20T03:20:20.968Z,62.10
2019-03-20T03:22:49.313Z,62.00
2019-03-20T03:25:17.295Z,61.70
2019-03-20T03:27:45.591Z,61.90
2019-03-20T03:30:14.144Z,62.20
2019-03-20T03:32:42.546Z,62.30
2019-03-20T03:35:15.968Z,62.30
2019-03-20T03:37:40.739Z,62.30
2019-03-20T03:40:09.500Z,62.00
2019-03-20T03:42:37.905Z,60.30
2019-03-20T03:45:07.185Z,60.00
2019-03-20T03:47:35.193Z,59.50
2019-03-20T03:50:03.408Z,59.30
2019-03-20T03:52:31.799Z,58.70
2019-03-20T03:55:00.499Z,59.00
2019-03-20T03:57:28.767Z,59.20
2019-03-20T03:59:56.754Z,58.80
2019-03-20T04:02:25.066Z,59.10
2019-03-20T04:04:53.150Z,58.90
2019-03-20T04:07:23.535Z,58.30
2019-03-20T04:09:50.813Z,58.10
2019-03-20T04:12:18.663Z,57.90
2019-03-20T04:14:46.691Z,58.60
2019-03-20T04:17:27.254Z,58.70
2019-03-20T04:19:55.253Z,59.10
2019-03-20T04:22:23.181Z,58.90
2019-03-20T04:24:51.104Z,59.20
2019-03-20T04:27:19.172Z,59.70
2019-03-20T04:29:47.220Z,60.00
2019-03-20T04:32:15.159Z,60.80
2019-03-20T04:34:43.063Z,62.20
2019-03-20T04:37:10.997Z,62.00
2019-03-20T04:39:38.955Z,62.10
2019-03-20T04:42:06.763Z,63.60
2019-03-20T04:44:34.746Z,63.40
2019-03-20T04:47:02.742Z,63.30
2019-03-20T04:49:30.655Z,63.30
2019-03-20T04:51:58.556Z,63.60
2019-03-20T04:54:26.427Z,63.20
2019-03-20T04:56:54.432Z,63.40
2019-03-20T04:59:22.427Z,62.80
2019-03-20T05:01:50.460Z,63.10
2019-03-20T05:04:18.345Z,63.00
2019-03-20T05:06:46.357Z,62.40
2019-03-20T05:09:14.320Z,61.90
2019-03-20T05:11:42.267Z,61.90
2019-03-20T05:14:12.382Z,61.90
2019-03-20T05:16:39.987Z,61.20
2019-03-20T05:19:08.084Z,59.80
2019-03-20T05:21:35.978Z,59.30
2019-03-20T05:24:03.909Z,59.30
2019-03-20T05:26:31.947Z,59.80
2019-03-20T05:28:59.889Z,60.80
2019-03-20T05:31:27.866Z,60.70
2019-03-20T05:33:55.816Z,61.30
2019-03-20T05:36:23.748Z,62.00
2019-03-20T05:38:51.682Z,62.20
2019-03-20T05:41:19.658Z,61.80
2019-03-20T05:43:47.579Z,62.40
2019-03-20T05:46:15.435Z,62.70
2019-03-20T05:48:43.443Z,62.80
2019-03-20T05:51:11.854Z,63.60
2019-03-20T05:53:40.060Z,64.00
2019-03-20T05:56:07.999Z,63.60
2019-03-20T05:58:35.907Z,64.30
2019-03-20T06:01:03.915Z,65.20
2019-03-20T06:03:31.836Z,65.00
2019-03-20T06:05:59.730Z,65.30
2019-03-20T06:08:27.579Z,66.40
2019-03-20T06:10:55.698Z,65.70
2019-03-20T06:13:25.222Z,65.10
2019-03-20T06:15:53.719Z,65.20
2019-03-20T06:18:21.687Z,65.10
2019-03-20T06:20:49.693Z,65.10
2019-03-20T06:23:17.651Z,65.20
2019-03-20T06:25:45.566Z,65.10
2019-03-20T06:28:13.561Z,65.20
2019-03-20T06:30:41.591Z,65.60
2019-03-20T06:33:09.473Z,65.80
2019-03-20T06:35:37.449Z,65.30
2019-03-20T06:38:05.288Z,64.90
2019-03-20T06:40:33.277Z,64.20
2019-03-20T06:43:01.317Z,63.40
2019-03-20T06:45:29.288Z,63.40
2019-03-20T06:47:57.463Z,62.90
2019-03-20T06:50:25.692Z,61.90
2019-03-20T06:52:53.766Z,61.60
2019-03-20T06:55:21.594Z,62.50
2019-03-20T06:57:49.539Z,62.40
2019-03-20T07:00:59.258Z,62.70
2019-03-20T07:03:42.427Z,64.00
2019-03-20T07:06:18.150Z,65.00
2019-03-20T07:08:50.242Z,65.50
2019-03-20T07:11:23.991Z,65.20
2019-03-20T07:13:51.934Z,64.50
2019-03-20T07:16:19.852Z,64.70
2019-03-20T07:18:47.656Z,65.50
2019-03-20T07:21:15.598Z,65.00
2019-03-20T07:23:43.509Z,65.40
2019-03-20T07:26:11.416Z,65.90
2019-03-20T07:28:39.359Z,65.30
2019-03-20T07:31:15.416Z,64.70
2019-03-20T07:33:37.270Z,66.90
2019-03-20T07:36:05.279Z,66.10
2019-03-20T07:38:33.304Z,65.20
2019-03-20T07:41:01.341Z,64.70
2019-03-20T07:43:29.260Z,63.00
2019-03-20T07:45:57.215Z,64.00
2019-03-20T07:48:27.143Z,64.50
2019-03-20T07:50:55.127Z,63.90
2019-03-20T07:53:23.091Z,63.10
2019-03-20T07:55:50.924Z,62.80
2019-03-20T07:58:19.395Z,62.30
2019-03-20T08:00:47.264Z,60.40
2019-03-20T08:03:15.220Z,59.70
2019-03-20T08:05:43.231Z,60.80
2019-03-20T08:08:11.490Z,62.00
2019-03-20T08:10:39.493Z,61.90
2019-03-20T08:13:07.494Z,61.10
2019-03-20T08:15:35.440Z,58.80
2019-03-20T08:18:03.747Z,60.20
2019-03-20T08:20:31.682Z,61.50
2019-03-20T08:23:00.036Z,60.00
2019-03-20T08:25:28.208Z,60.20
2019-03-20T08:27:56.126Z,61.40
2019-03-20T08:30:24.099Z,59.10
2019-03-20T08:32:51.948Z,59.30
2019-03-20T08:35:19.923Z,59.10
2019-03-20T08:38:02.172Z,59.30
2019-03-20T08:40:54.907Z,59.80
2019-03-20T08:43:22.874Z,58.60
2019-03-20T08:45:50.789Z,59.40
2019-03-20T08:48:18.666Z,59.70
2019-03-20T08:50:46.561Z,58.10
2019-03-20T08:53:14.514Z,58.40
2019-03-20T08:55:42.397Z,57.00
2019-03-20T08:58:10.483Z,59.30
2019-03-20T09:00:38.297Z,58.10
2019-03-20T09:03:06.207Z,58.60
2019-03-20T09:06:01.809Z,57.60
2019-03-20T09:09:01.810Z,58.40
2019-03-20T09:12:09.539Z,57.00
2019-03-20T09:15:29.589Z,57.50
2019-03-20T09:18:11.313Z,56.90
2019-03-20T09:20:39.267Z,58.80
2019-03-20T09:23:19.968Z,58.80
2019-03-20T09:26:02.340Z,56.90
2019-03-20T09:28:30.554Z,57.10
2019-03-20T09:30:58.644Z,56.80
2019-03-20T09:33:26.803Z,55.10
2019-03-20T09:35:54.769Z,55.20
2019-03-20T09:38:24.050Z,54.70
2019-03-20T09:40:51.975Z,55.80
2019-03-20T09:43:19.959Z,55.20
2019-03-20T09:45:48.228Z,54.90
2019-03-20T09:48:16.099Z,56.30
2019-03-20T09:50:44.042Z,54.90
2019-03-20T09:53:11.988Z,55.70
2019-03-20T09:55:40.002Z,55.40
2019-03-20T09:58:11.902Z,52.70
2019-03-20T10:00:37.524Z,53.60
2019-03-20T10:03:05.574Z,53.40
2019-03-20T10:05:33.569Z,50.90
2019-03-20T10:08:01.537Z,51.40
2019-03-20T10:10:29.968Z,50.70
2019-03-20T10:12:57.880Z,51.00
2019-03-20T10:15:29.650Z,51.20
2019-03-20T10:17:57.684Z,49.90
2019-03-20T10:20:25.811Z,49.90
2019-03-20T10:22:53.859Z,49.40
2019-03-20T10:25:22.710Z,50.20
2019-03-20T10:27:51.933Z,49.30
2019-03-20T10:30:34.385Z,47.50
2019-03-20T10:33:16.604Z,48.60
2019-03-20T10:35:58.847Z,49.30
2019-03-20T10:38:43.677Z,48.10
2019-03-20T10:41:11.537Z,46.60
2019-03-20T10:43:39.490Z,45.90
2019-03-20T10:46:07.450Z,46.20
2019-03-20T10:48:35.747Z,45.10
2019-03-20T10:51:03.950Z,44.50
2019-03-20T10:53:31.865Z,45.20
2019-03-20T10:55:59.887Z,43.50
2019-03-20T10:58:28.022Z,43.90
2019-03-20T11:00:55.867Z,42.40
2019-03-20T11:03:25.711Z,45.70
2019-03-20T11:05:53.759Z,44.60
2019-03-20T11:08:21.882Z,45.30
2019-03-20T11:10:49.843Z,47.10
2019-03-20T11:13:17.815Z,46.60
2019-03-20T11:15:45.766Z,45.00
2019-03-20T11:18:13.717Z,46.00
2019-03-20T11:20:41.810Z,44.60
2019-03-20T11:23:09.886Z,45.50
2019-03-20T11:25:37.991Z,44.50
2019-03-20T11:28:05.859Z,45.40
2019-03-20T11:30:34.187Z,46.10
2019-03-20T11:33:02.145Z,45.20
2019-03-20T11:35:30.326Z,42.70
2019-03-20T11:37:58.643Z,42.20
2019-03-20T11:40:27.868Z,41.60
2019-03-20T11:42:55.974Z,42.20
2019-03-20T11:45:24.313Z,42.50
2019-03-20T11:47:52.550Z,43.20
2019-03-20T11:50:26.043Z,42.80
2019-03-20T11:52:54.516Z,40.70
2019-03-20T11:55:22.778Z,41.00
2019-03-20T11:58:07.320Z,40.20
2019-03-20T12:00:37.779Z,39.10
2019-03-20T12:03:05.998Z,39.20
2019-03-20T12:05:33.900Z,39.90
2019-03-20T12:08:01.857Z,39.20
2019-03-20T12:10:29.739Z,39.70
2019-03-20T12:12:57.688Z,37.60
2019-03-20T12:16:21.317Z,37.70
2019-03-20T12:18:49.268Z,37.10
2019-03-20T12:21:17.216Z,35.80
2019-03-20T12:24:00.552Z,37.40
2019-03-20T12:26:36.731Z,37.60
2019-03-20T12:29:13.955Z,37.70
2019-03-20T12:31:41.924Z,36.10
2019-03-20T12:35:15.799Z,34.60
2019-03-20T12:38:15.920Z,35.70
2019-03-20T12:41:08.454Z,34.10
2019-03-20T12:44:01.986Z,33.20
2019-03-20T12:46:41.001Z,33.70
2019-03-20T12:48:59.889Z,35.30
2019-03-20T12:51:27.998Z,34.50
2019-03-20T12:53:55.995Z,35.00
2019-03-20T12:56:24.115Z,34.80
2019-03-20T12:58:52.179Z,33.40
2019-03-20T13:01:20.272Z,34.00
2019-03-20T13:03:48.446Z,33.80
2019-03-20T13:06:16.573Z,32.30
2019-03-20T13:08:44.655Z,32.50
2019-03-20T13:11:21.629Z,32.20
2019-03-20T13:13:51.399Z,31.70
2019-03-20T13:16:19.698Z,30.60
2019-03-20T13:18:47.930Z,30.00
2019-03-20T13:21:16.190Z,29.80
2019-03-20T13:23:44.273Z,30.30
2019-03-20T13:26:12.420Z,30.10
2019-03-20T13:28:40.502Z,30.00
2019-03-20T13:31:12.025Z,30.40
2019-03-20T13:33:40.083Z,30.60
2019-03-20T13:36:08.414Z,31.10
2019-03-20T13:38:36.438Z,30.40
2019-03-20T13:41:04.375Z,28.90
2019-03-20T13:43:32.304Z,28.90
2019-03-20T13:46:00.336Z,28.80
2019-03-20T13:48:28.267Z,29.00
2019-03-20T13:50:56.343Z,29.00
2019-03-20T13:53:25.787Z,29.00
2019-03-20T13:55:53.763Z,30.00
2019-03-20T13:58:21.822Z,29.70
2019-03-20T14:00:49.912Z,29.40
2019-03-20T14:03:17.867Z,28.80
2019-03-20T14:05:45.934Z,28.70
2019-03-20T14:08:14.100Z,28.80
2019-03-20T14:10:50.045Z,29.60
2019-03-20T14:13:12.072Z,28.80
2019-03-20T14:16:12.262Z,28.10
2019-03-20T14:18:40.350Z,28.70
2019-03-20T14:21:08.372Z,27.50
2019-03-20T14:23:36.396Z,28.10
2019-03-20T14:26:04.295Z,27.40
2019-03-20T14:28:32.438Z,26.50
2019-03-20T14:31:00.436Z,27.00
2019-03-20T14:33:28.508Z,27.60
2019-03-20T14:35:56.644Z,27.80
2019-03-20T14:38:25.779Z,28.20
2019-03-20T14:40:53.804Z,27.80
2019-03-20T14:43:21.835Z,28.50
2019-03-20T14:45:49.855Z,28.20
2019-03-20T14:48:17.647Z,28.60
2019-03-20T14:50:45.795Z,27.20
2019-03-20T14:53:13.755Z,27.20
2019-03-20T14:55:42.098Z,26.60
2019-03-20T14:58:10.054Z,27.60
2019-03-20T15:00:38.069Z,28.00
2019-03-20T15:03:06.158Z,28.40
2019-03-20T15:05:34.175Z,27.90
2019-03-20T15:08:02.370Z,27.10
2019-03-20T15:10:30.616Z,27.20
2019-03-20T15:12:58.822Z,26.70
2019-03-20T15:16:16.817Z,27.50
2019-03-20T15:18:42.823Z,28.40
2019-03-20T15:21:10.739Z,25.90
2019-03-20T15:23:38.667Z,26.10
2019-03-20T15:26:07.070Z,26.10
2019-03-20T15:28:34.950Z,27.00
2019-03-20T15:31:03.122Z,27.20
2019-03-20T15:33:30.973Z,26.30
2019-03-20T15:36:22.404Z,26.20
2019-03-20T15:38:50.359Z,26.00
2019-03-20T15:41:18.247Z,26.60
2019-03-20T15:43:46.262Z,26.30
2019-03-20T15:46:14.168Z,26.10
2019-03-20T15:48:42.104Z,26.10
2019-03-20T15:51:10.003Z,26.30
2019-03-20T15:53:37.980Z,27.10
2019-03-20T15:56:05.946Z,26.50
2019-03-20T15:58:33.887Z,26.10
2019-03-20T16:01:01.927Z,26.20
2019-03-20T16:03:30.304Z,25.70
2019-03-20T16:05:58.252Z,25.90
2019-03-20T16:08:27.242Z,25.90
2019-03-20T16:10:55.203Z,26.30
2019-03-20T16:13:23.242Z,26.20
2019-03-20T16:16:33.656Z,26.50
2019-03-20T16:19:01.642Z,26.10
2019-03-20T16:21:29.815Z,26.80
2019-03-20T16:23:57.750Z,26.60
2019-03-20T16:26:26.049Z,27.10
2019-03-20T16:28:54.080Z,27.90
2019-03-20T16:31:22.051Z,28.40
2019-03-20T16:33:50.123Z,27.60
2019-03-20T16:36:18.215Z,27.80
2019-03-20T16:38:46.187Z,27.10
2019-03-20T16:41:16.956Z,26.20
2019-03-20T16:43:44.038Z,26.30
2019-03-20T16:46:11.956Z,26.70
2019-03-20T16:48:40.021Z,26.50
2019-03-20T16:51:07.931Z,26.80
2019-03-20T16:53:35.938Z,26.90
2019-03-20T16:56:04.290Z,26.20
2019-03-20T16:58:32.232Z,26.70
2019-03-20T17:01:00.167Z,27.00
2019-03-20T17:03:28.294Z,26.80
2019-03-20T17:05:57.567Z,27.00
2019-03-20T17:08:28.404Z,27.50
2019-03-20T17:10:56.710Z,27.80
2019-03-20T17:13:25.284Z,28.00
2019-03-20T17:16:42.627Z,26.90
2019-03-20T17:19:07.818Z,26.80
2019-03-20T17:21:35.894Z,27.70
2019-03-20T17:24:04.044Z,27.20
2019-03-20T17:26:31.955Z,27.30
2019-03-20T17:29:08.694Z,27.30
2019-03-20T17:31:30.089Z,27.70
2019-03-20T17:33:58.162Z,27.80
2019-03-20T17:36:25.995Z,28.00
2019-03-20T17:38:54.491Z,28.00
2019-03-20T17:41:36.649Z,28.70
2019-03-20T17:44:18.619Z,28.90
2019-03-20T17:46:59.031Z,28.00
2019-03-20T17:49:39.899Z,28.00
2019-03-20T17:52:16.436Z,28.50
2019-03-20T17:54:51.530Z,29.00
2019-03-20T17:57:30.979Z,28.80
2019-03-20T18:00:10.453Z,29.00
2019-03-20T18:02:55.500Z,29.80
2019-03-20T18:05:29.481Z,29.80
2019-03-20T18:07:57.455Z,29.70
2019-03-20T18:10:25.700Z,29.80
2019-03-20T18:12:53.829Z,29.50
2019-03-20T18:15:55.530Z,28.80
2019-03-20T18:18:22.454Z,29.60
2019-03-20T18:20:50.384Z,29.90
2019-03-20T18:23:18.444Z,29.60
2019-03-20T18:25:46.531Z,29.80
2019-03-20T18:28:14.723Z,29.90
2019-03-20T18:30:43.027Z,29.50
2019-03-20T18:33:10.961Z,29.40
2019-03-20T18:35:38.904Z,29.60
2019-03-20T18:38:07.215Z,29.70
2019-03-20T18:40:35.242Z,29.80
2019-03-20T18:43:03.477Z,30.00
2019-03-20T18:45:31.584Z,30.50
2019-03-20T18:47:59.499Z,30.50
2019-03-20T18:50:27.614Z,30.70
2019-03-20T18:52:55.639Z,30.40
2019-03-20T18:55:23.712Z,30.30
2019-03-20T18:57:51.665Z,31.40
2019-03-20T19:00:21.695Z,31.60
2019-03-20T19:02:49.903Z,31.80
2019-03-20T19:05:33.913Z,32.00
2019-03-20T19:08:01.966Z,31.80
2019-03-20T19:10:30.222Z,31.90
2019-03-20T19:12:58.977Z,32.40
2019-03-20T19:16:05.432Z,32.80
2019-03-20T19:18:32.072Z,33.10
2019-03-20T19:21:00.178Z,32.30
2019-03-20T19:23:28.149Z,32.50
2019-03-20T19:25:56.227Z,33.00
2019-03-20T19:28:24.361Z,32.50
2019-03-20T19:30:52.283Z,32.30
2019-03-20T19:33:20.146Z,32.60
2019-03-20T19:35:48.039Z,33.00
2019-03-20T19:38:17.267Z,33.20
2019-03-20T19:40:45.552Z,33.50
2019-03-20T19:43:13.524Z,33.60
2019-03-20T19:45:41.573Z,33.00
2019-03-20T19:48:09.689Z,33.60
2019-03-20T19:50:37.705Z,33.70
2019-03-20T19:53:05.727Z,34.10
2019-03-20T19:55:33.765Z,34.00
2019-03-20T19:58:01.770Z,34.40
2019-03-20T20:00:29.712Z,34.40
2019-03-20T20:02:57.602Z,34.10
2019-03-20T20:05:25.610Z,34.20
2019-03-20T20:07:53.546Z,34.10
2019-03-20T20:10:21.830Z,34.40
2019-03-20T20:12:49.753Z,34.20
2019-03-20T20:16:03.712Z,34.40
2019-03-20T20:18:29.735Z,34.40
2019-03-20T20:20:57.707Z,34.30
2019-03-20T20:23:27.229Z,34.10
2019-03-20T20:25:55.291Z,34.60
2019-03-20T20:28:23.228Z,34.10
2019-03-20T20:30:51.355Z,34.00
2019-03-20T20:33:19.629Z,34.60
2019-03-20T20:35:54.642Z,35.10
2019-03-20T20:38:22.555Z,34.20
2019-03-20T20:40:50.425Z,34.10
2019-03-20T20:43:18.338Z,34.70
2019-03-20T20:45:46.374Z,33.30
2019-03-20T20:48:14.378Z,33.40
2019-03-20T20:50:42.276Z,34.00
2019-03-20T20:53:10.285Z,34.50
2019-03-20T20:55:38.151Z,34.50
2019-03-20T20:58:06.036Z,34.80
2019-03-20T21:00:34.070Z,34.00
2019-03-20T21:03:01.995Z,34.80
2019-03-20T21:05:29.964Z,35.50
2019-03-20T21:07:57.874Z,35.50
2019-03-20T21:10:25.830Z,34.90
2019-03-20T21:12:56.746Z,35.10
2019-03-20T21:16:25.236Z,35.50
2019-03-20T21:19:31.435Z,36.00
2019-03-20T21:22:44.659Z,35.30
2019-03-20T21:25:16.972Z,35.60
2019-03-20T21:28:32.604Z,35.40
2019-03-20T21:31:40.819Z,35.50
2019-03-20T21:35:02.490Z,35.30
2019-03-20T21:38:05.190Z,36.00
2019-03-20T21:41:20.646Z,35.80
2019-03-20T21:44:10.275Z,36.00
2019-03-20T21:47:18.196Z,35.90
2019-03-20T21:49:47.311Z,35.80
2019-03-20T21:52:15.795Z,36.50
2019-03-20T21:55:37.538Z,36.40
2019-03-20T21:58:13.832Z,36.10
2019-03-20T22:01:21.443Z,36.50
2019-03-20T22:03:50.020Z,37.40
2019-03-20T22:06:54.095Z,36.80
2019-03-20T22:09:47.550Z,36.60
2019-03-20T22:12:42.523Z,37.20
2019-03-20T22:16:01.387Z,37.50
2019-03-20T22:19:17.072Z,37.70
2019-03-20T22:22:29.252Z,37.60
2019-03-20T22:25:34.340Z,38.10
2019-03-20T22:28:39.431Z,39.10
2019-03-20T22:31:07.769Z,38.50
2019-03-20T22:34:11.541Z,38.60
2019-03-20T22:36:41.687Z,38.20
2019-03-20T22:39:47.133Z,38.50
2019-03-20T22:42:35.502Z,38.40
2019-03-20T22:45:40.708Z,39.00
2019-03-20T22:48:47.103Z,39.50
2019-03-20T22:52:05.725Z,39.40
2019-03-20T22:55:18.401Z,39.40
2019-03-20T22:58:17.154Z,39.50
2019-03-20T23:00:46.710Z,39.70
2019-03-20T23:03:20.684Z,39.40
2019-03-20T23:05:49.359Z,39.90
2019-03-20T23:08:17.859Z,40.10
2019-03-20T23:10:48.088Z,40.40
2019-03-20T23:13:19.172Z,40.50
2019-03-20T23:15:46.788Z,40.40
2019-03-20T23:18:15.134Z,40.60
2019-03-20T23:20:43.556Z,40.70
2019-03-20T23:23:12.027Z,40.70
2019-03-20T23:25:40.523Z,40.70
2019-03-20T23:28:09.075Z,40.90
2019-03-20T23:30:37.660Z,40.70
2019-03-20T23:33:06.702Z,40.80
2019-03-20T23:35:35.240Z,41.00
2019-03-20T23:38:03.735Z,40.80
2019-03-20T23:40:33.442Z,41.00
2019-03-20T23:43:02.274Z,40.80
2019-03-20T23:45:30.875Z,41.00
2019-03-20T23:48:02.867Z,41.60
2019-03-20T23:50:31.362Z,41.10
2019-03-20T23:52:59.882Z,41.20
2019-03-20T23:55:28.360Z,41.90
2019-03-20T23:57:56.848Z,41.70
